Portada
METAR-TAF:

METAR-TAF

Aeropuertos :

Gökçeada, Turquía

latitud: 40-12-04N, longitud: 25-52-56E, altitud: 22 m

Observación

El informe se hizo hace 13 horas y 46 minutos, a las 12:50 UTC
Viento 8 kt del norte-noroeste
Temperatura 35°C
Humedad 42%
Presión 1007 hPa
Visibilidad 10 km o más
sin nubes por debajo de 1500 m y sin presencia de cumulonimbus.

METAR: LTFK 221250Z 33008KT CAVOK 35/20 Q1007

Hora: 05:36 (02:36 UTC)

Pronóstico

El informe se hizo hace 56 minutos, a las 01:40 UTC
Pronóstico válido del 23 a las 03 UTC al 23 a las 12 UTC
Viento 8 kt del noreste
Visibilidad 10 km o más
sin nubes por debajo de 1500 m y sin presencia de cumulonimbus.
Evolucionando progresivamente
del 23 a las 09 UTC al 23 a las 12 UTC
Nubes dispersas a una altura de 3500 ft
Cielo nuboso a una altura de 10000 ft

TAF: LTFK 230140Z 2303/2312 04008KT CAVOK BECMG 2309/2312 SCT035 BKN100

Observaciones y pronósticos meteorológicos de más de 4000 aeropuertos (mensajes METAR y TAF).

Los puntos amarillos y rojos representan las estaciones disponibles.

Ponga el ratón en el punto deseado para ver el nombre de la estación.

Haga clic para ver las observaciones y los pronósticos meteorológicos.

Para cambiar el mapa : haga clic en los botones verdes con una cruz de color negro para hacer un zoom, en el botón verde con un guión para alejar o en las flechas verdes para mapas adyacentes.


METAR-TAF: